sensor_id;sensor_type;location;lat;lon;timestamp;P1;durP1;ratioP1;P2;durP2;ratioP2
5811;SDS011;2932;52.400;9.558;2023-04-07T00:00:57;10.57;;;7.57;;
5811;SDS011;2932;52.400;9.558;2023-04-07T00:03:22;11.57;;;7.37;;
5811;SDS011;2932;52.400;9.558;2023-04-07T00:05:48;11.87;;;7.83;;
5811;SDS011;2932;52.400;9.558;2023-04-07T00:08:13;11.57;;;7.30;;
5811;SDS011;2932;52.400;9.558;2023-04-07T00:10:39;12.40;;;7.83;;
5811;SDS011;2932;52.400;9.558;2023-04-07T00:13:05;9.17;;;6.90;;
5811;SDS011;2932;52.400;9.558;2023-04-07T00:15:30;9.77;;;7.03;;
5811;SDS011;2932;52.400;9.558;2023-04-07T00:17:55;13.03;;;7.73;;
5811;SDS011;2932;52.400;9.558;2023-04-07T00:20:21;9.73;;;7.13;;
5811;SDS011;2932;52.400;9.558;2023-04-07T00:22:47;9.93;;;7.03;;
5811;SDS011;2932;52.400;9.558;2023-04-07T00:25:12;11.53;;;7.40;;
5811;SDS011;2932;52.400;9.558;2023-04-07T00:27:37;9.77;;;6.93;;
5811;SDS011;2932;52.400;9.558;2023-04-07T00:30:03;12.07;;;7.50;;
5811;SDS011;2932;52.400;9.558;2023-04-07T00:32:28;10.00;;;7.17;;
5811;SDS011;2932;52.400;9.558;2023-04-07T00:34:54;12.67;;;7.43;;
5811;SDS011;2932;52.400;9.558;2023-04-07T00:37:19;12.93;;;7.50;;
5811;SDS011;2932;52.400;9.558;2023-04-07T00:39:45;11.40;;;7.80;;
5811;SDS011;2932;52.400;9.558;2023-04-07T00:42:10;12.67;;;7.20;;
5811;SDS011;2932;52.400;9.558;2023-04-07T00:44:36;9.73;;;7.50;;
5811;SDS011;2932;52.400;9.558;2023-04-07T00:47:01;10.20;;;7.20;;
5811;SDS011;2932;52.400;9.558;2023-04-07T00:49:27;11.43;;;7.30;;
5811;SDS011;2932;52.400;9.558;2023-04-07T00:51:53;9.90;;;7.23;;
5811;SDS011;2932;52.400;9.558;2023-04-07T00:54:19;10.70;;;7.43;;
5811;SDS011;2932;52.400;9.558;2023-04-07T00:56:47;12.37;;;7.93;;
5811;SDS011;2932;52.400;9.558;2023-04-07T00:59:12;10.27;;;6.83;;
5811;SDS011;2932;52.400;9.558;2023-04-07T01:01:39;10.53;;;7.23;;
5811;SDS011;2932;52.400;9.558;2023-04-07T01:04:12;10.70;;;7.33;;
5811;SDS011;2932;52.400;9.558;2023-04-07T01:06:47;12.63;;;7.40;;
5811;SDS011;2932;52.400;9.558;2023-04-07T01:09:20;11.13;;;7.90;;
5811;SDS011;2932;52.400;9.558;2023-04-07T01:12:01;10.37;;;7.27;;
5811;SDS011;2932;52.400;9.558;2023-04-07T01:14:31;10.37;;;6.63;;
5811;SDS011;2932;52.400;9.558;2023-04-07T01:17:02;11.87;;;7.23;;
5811;SDS011;2932;52.400;9.558;2023-04-07T01:19:32;10.73;;;7.40;;
5811;SDS011;2932;52.400;9.558;2023-04-07T01:22:06;12.37;;;7.53;;
5811;SDS011;2932;52.400;9.558;2023-04-07T01:25:01;8.83;;;6.80;;
5811;SDS011;2932;52.400;9.558;2023-04-07T01:30:27;13.67;;;7.37;;
5811;SDS011;2932;52.400;9.558;2023-04-07T01:32:55;9.63;;;6.77;;
5811;SDS011;2932;52.400;9.558;2023-04-07T01:35:23;11.23;;;7.20;;
5811;SDS011;2932;52.400;9.558;2023-04-07T01:37:50;12.83;;;7.33;;
5811;SDS011;2932;52.400;9.558;2023-04-07T01:40:17;10.47;;;7.07;;
5811;SDS011;2932;52.400;9.558;2023-04-07T01:42:44;11.20;;;7.80;;
5811;SDS011;2932;52.400;9.558;2023-04-07T01:45:11;10.07;;;7.10;;
5811;SDS011;2932;52.400;9.558;2023-04-07T01:47:37;10.17;;;7.00;;
5811;SDS011;2932;52.400;9.558;2023-04-07T01:50:03;10.47;;;7.47;;
5811;SDS011;2932;52.400;9.558;2023-04-07T01:52:31;12.67;;;6.80;;
5811;SDS011;2932;52.400;9.558;2023-04-07T01:54:57;10.23;;;7.23;;
5811;SDS011;2932;52.400;9.558;2023-04-07T01:57:23;9.57;;;7.03;;
5811;SDS011;2932;52.400;9.558;2023-04-07T01:59:48;9.53;;;7.33;;
5811;SDS011;2932;52.400;9.558;2023-04-07T02:02:13;11.07;;;6.43;;
5811;SDS011;2932;52.400;9.558;2023-04-07T02:04:41;12.43;;;7.90;;
5811;SDS011;2932;52.400;9.558;2023-04-07T02:07:18;11.93;;;7.20;;
5811;SDS011;2932;52.400;9.558;2023-04-07T02:09:49;10.17;;;7.03;;
5811;SDS011;2932;52.400;9.558;2023-04-07T02:12:17;8.77;;;6.63;;
5811;SDS011;2932;52.400;9.558;2023-04-07T02:14:43;9.07;;;6.63;;
5811;SDS011;2932;52.400;9.558;2023-04-07T02:17:09;10.90;;;7.13;;
5811;SDS011;2932;52.400;9.558;2023-04-07T02:19:35;11.47;;;7.30;;
5811;SDS011;2932;52.400;9.558;2023-04-07T02:22:02;9.73;;;6.60;;
5811;SDS011;2932;52.400;9.558;2023-04-07T02:24:29;9.57;;;6.90;;
5811;SDS011;2932;52.400;9.558;2023-04-07T02:26:54;11.13;;;7.63;;
5811;SDS011;2932;52.400;9.558;2023-04-07T02:29:20;10.33;;;7.07;;
5811;SDS011;2932;52.400;9.558;2023-04-07T02:31:45;8.67;;;7.13;;
5811;SDS011;2932;52.400;9.558;2023-04-07T02:34:11;9.67;;;7.07;;
5811;SDS011;2932;52.400;9.558;2023-04-07T02:36:36;11.63;;;6.93;;
5811;SDS011;2932;52.400;9.558;2023-04-07T02:39:01;10.63;;;7.13;;
5811;SDS011;2932;52.400;9.558;2023-04-07T02:41:27;10.30;;;6.90;;
5811;SDS011;2932;52.400;9.558;2023-04-07T02:43:53;10.70;;;7.37;;
5811;SDS011;2932;52.400;9.558;2023-04-07T02:46:18;8.63;;;6.53;;
5811;SDS011;2932;52.400;9.558;2023-04-07T02:48:43;10.37;;;6.87;;
5811;SDS011;2932;52.400;9.558;2023-04-07T02:51:08;7.80;;;6.47;;
5811;SDS011;2932;52.400;9.558;2023-04-07T02:53:34;8.87;;;6.50;;
5811;SDS011;2932;52.400;9.558;2023-04-07T02:55:59;9.63;;;7.33;;
5811;SDS011;2932;52.400;9.558;2023-04-07T02:58:25;9.90;;;6.90;;
5811;SDS011;2932;52.400;9.558;2023-04-07T03:00:50;9.03;;;6.40;;
5811;SDS011;2932;52.400;9.558;2023-04-07T03:03:15;9.80;;;7.47;;
5811;SDS011;2932;52.400;9.558;2023-04-07T03:05:40;13.87;;;7.60;;
5811;SDS011;2932;52.400;9.558;2023-04-07T03:08:06;9.17;;;7.03;;
5811;SDS011;2932;52.400;9.558;2023-04-07T03:10:31;11.33;;;6.90;;
5811;SDS011;2932;52.400;9.558;2023-04-07T03:12:56;10.60;;;7.60;;
5811;SDS011;2932;52.400;9.558;2023-04-07T03:15:22;8.97;;;6.57;;
5811;SDS011;2932;52.400;9.558;2023-04-07T03:17:47;11.70;;;7.40;;
5811;SDS011;2932;52.400;9.558;2023-04-07T03:20:13;10.73;;;7.10;;
5811;SDS011;2932;52.400;9.558;2023-04-07T03:22:38;10.00;;;7.57;;
5811;SDS011;2932;52.400;9.558;2023-04-07T03:25:04;10.77;;;7.10;;
5811;SDS011;2932;52.400;9.558;2023-04-07T03:27:29;9.70;;;6.90;;
5811;SDS011;2932;52.400;9.558;2023-04-07T03:29:55;12.67;;;7.90;;
5811;SDS011;2932;52.400;9.558;2023-04-07T03:32:20;10.53;;;6.87;;
5811;SDS011;2932;52.400;9.558;2023-04-07T03:34:45;10.97;;;7.33;;
5811;SDS011;2932;52.400;9.558;2023-04-07T03:37:11;11.10;;;7.10;;
5811;SDS011;2932;52.400;9.558;2023-04-07T03:39:36;8.90;;;6.93;;
5811;SDS011;2932;52.400;9.558;2023-04-07T03:42:02;9.53;;;7.40;;
5811;SDS011;2932;52.400;9.558;2023-04-07T03:44:27;9.53;;;6.70;;
5811;SDS011;2932;52.400;9.558;2023-04-07T03:46:53;9.37;;;7.13;;
5811;SDS011;2932;52.400;9.558;2023-04-07T03:49:18;9.43;;;7.23;;
5811;SDS011;2932;52.400;9.558;2023-04-07T03:51:43;9.33;;;6.77;;
5811;SDS011;2932;52.400;9.558;2023-04-07T03:54:09;10.97;;;6.77;;
5811;SDS011;2932;52.400;9.558;2023-04-07T03:56:35;9.43;;;7.40;;
5811;SDS011;2932;52.400;9.558;2023-04-07T03:59:01;9.07;;;7.07;;
5811;SDS011;2932;52.400;9.558;2023-04-07T04:01:27;11.03;;;6.90;;
5811;SDS011;2932;52.400;9.558;2023-04-07T04:03:52;9.60;;;7.43;;
5811;SDS011;2932;52.400;9.558;2023-04-07T04:06:17;15.13;;;7.70;;
5811;SDS011;2932;52.400;9.558;2023-04-07T04:08:42;11.07;;;7.47;;
5811;SDS011;2932;52.400;9.558;2023-04-07T04:11:08;9.40;;;7.03;;
5811;SDS011;2932;52.400;9.558;2023-04-07T04:13:33;10.90;;;7.73;;
5811;SDS011;2932;52.400;9.558;2023-04-07T04:15:58;10.07;;;7.80;;
5811;SDS011;2932;52.400;9.558;2023-04-07T04:18:24;10.10;;;6.83;;
5811;SDS011;2932;52.400;9.558;2023-04-07T04:20:49;12.30;;;7.53;;
5811;SDS011;2932;52.400;9.558;2023-04-07T04:23:15;13.77;;;8.10;;
5811;SDS011;2932;52.400;9.558;2023-04-07T04:25:40;11.47;;;7.53;;
5811;SDS011;2932;52.400;9.558;2023-04-07T04:28:06;10.00;;;7.63;;
5811;SDS011;2932;52.400;9.558;2023-04-07T04:30:31;10.43;;;7.57;;
5811;SDS011;2932;52.400;9.558;2023-04-07T04:32:57;11.37;;;8.07;;
5811;SDS011;2932;52.400;9.558;2023-04-07T04:35:22;10.00;;;7.87;;
5811;SDS011;2932;52.400;9.558;2023-04-07T04:37:48;9.87;;;7.07;;
5811;SDS011;2932;52.400;9.558;2023-04-07T04:40:13;11.13;;;8.60;;
5811;SDS011;2932;52.400;9.558;2023-04-07T04:42:39;12.43;;;9.17;;
5811;SDS011;2932;52.400;9.558;2023-04-07T04:45:05;17.23;;;11.10;;
5811;SDS011;2932;52.400;9.558;2023-04-07T04:47:31;16.53;;;11.97;;
5811;SDS011;2932;52.400;9.558;2023-04-07T04:49:56;17.67;;;11.53;;
5811;SDS011;2932;52.400;9.558;2023-04-07T04:52:21;16.03;;;10.17;;
5811;SDS011;2932;52.400;9.558;2023-04-07T04:54:47;13.07;;;9.70;;
5811;SDS011;2932;52.400;9.558;2023-04-07T04:57:12;12.83;;;8.93;;
5811;SDS011;2932;52.400;9.558;2023-04-07T04:59:37;13.67;;;9.53;;
5811;SDS011;2932;52.400;9.558;2023-04-07T05:02:03;15.40;;;9.10;;
5811;SDS011;2932;52.400;9.558;2023-04-07T05:04:29;11.83;;;8.60;;
5811;SDS011;2932;52.400;9.558;2023-04-07T05:06:55;13.30;;;8.67;;
5811;SDS011;2932;52.400;9.558;2023-04-07T05:09:20;13.17;;;8.67;;
5811;SDS011;2932;52.400;9.558;2023-04-07T05:11:46;12.77;;;9.20;;
5811;SDS011;2932;52.400;9.558;2023-04-07T05:14:13;13.10;;;8.37;;
5811;SDS011;2932;52.400;9.558;2023-04-07T05:16:38;12.50;;;9.17;;
5811;SDS011;2932;52.400;9.558;2023-04-07T05:19:03;12.77;;;8.97;;
5811;SDS011;2932;52.400;9.558;2023-04-07T05:21:29;11.53;;;8.43;;
5811;SDS011;2932;52.400;9.558;2023-04-07T05:23:54;13.17;;;8.93;;
5811;SDS011;2932;52.400;9.558;2023-04-07T05:26:20;13.30;;;8.73;;
5811;SDS011;2932;52.400;9.558;2023-04-07T05:28:45;13.43;;;8.73;;
5811;SDS011;2932;52.400;9.558;2023-04-07T05:31:11;16.67;;;9.53;;
5811;SDS011;2932;52.400;9.558;2023-04-07T05:33:36;14.10;;;9.60;;
5811;SDS011;2932;52.400;9.558;2023-04-07T05:36:01;14.43;;;9.13;;
5811;SDS011;2932;52.400;9.558;2023-04-07T05:38:27;14.73;;;9.23;;
5811;SDS011;2932;52.400;9.558;2023-04-07T05:40:52;14.40;;;9.97;;
5811;SDS011;2932;52.400;9.558;2023-04-07T05:43:17;12.27;;;9.13;;
5811;SDS011;2932;52.400;9.558;2023-04-07T05:45:43;13.23;;;9.13;;
5811;SDS011;2932;52.400;9.558;2023-04-07T05:48:08;15.00;;;9.63;;
5811;SDS011;2932;52.400;9.558;2023-04-07T05:50:33;13.37;;;8.80;;
5811;SDS011;2932;52.400;9.558;2023-04-07T05:52:58;14.67;;;9.60;;
5811;SDS011;2932;52.400;9.558;2023-04-07T05:55:24;14.20;;;9.10;;
5811;SDS011;2932;52.400;9.558;2023-04-07T05:57:49;14.10;;;9.80;;
5811;SDS011;2932;52.400;9.558;2023-04-07T06:00:15;16.03;;;9.47;;
5811;SDS011;2932;52.400;9.558;2023-04-07T06:02:40;12.03;;;8.87;;
5811;SDS011;2932;52.400;9.558;2023-04-07T06:05:05;12.93;;;10.30;;
5811;SDS011;2932;52.400;9.558;2023-04-07T06:07:31;15.43;;;9.33;;
5811;SDS011;2932;52.400;9.558;2023-04-07T06:09:57;13.07;;;9.40;;
5811;SDS011;2932;52.400;9.558;2023-04-07T06:12:22;18.70;;;10.07;;
5811;SDS011;2932;52.400;9.558;2023-04-07T06:14:54;12.30;;;9.70;;
5811;SDS011;2932;52.400;9.558;2023-04-07T06:17:20;16.20;;;9.13;;
5811;SDS011;2932;52.400;9.558;2023-04-07T06:19:46;15.50;;;9.90;;
5811;SDS011;2932;52.400;9.558;2023-04-07T06:22:11;14.20;;;10.00;;
5811;SDS011;2932;52.400;9.558;2023-04-07T06:24:37;20.43;;;10.20;;
5811;SDS011;2932;52.400;9.558;2023-04-07T06:27:02;14.60;;;9.33;;
5811;SDS011;2932;52.400;9.558;2023-04-07T06:29:28;15.10;;;9.47;;
5811;SDS011;2932;52.400;9.558;2023-04-07T06:31:56;14.47;;;9.17;;
5811;SDS011;2932;52.400;9.558;2023-04-07T06:34:22;12.13;;;9.17;;
5811;SDS011;2932;52.400;9.558;2023-04-07T06:36:47;13.13;;;9.43;;
5811;SDS011;2932;52.400;9.558;2023-04-07T06:39:12;11.57;;;8.93;;
5811;SDS011;2932;52.400;9.558;2023-04-07T06:41:38;11.43;;;8.93;;
5811;SDS011;2932;52.400;9.558;2023-04-07T06:44:06;12.37;;;9.33;;
5811;SDS011;2932;52.400;9.558;2023-04-07T06:46:32;11.83;;;8.87;;
5811;SDS011;2932;52.400;9.558;2023-04-07T06:48:58;16.27;;;9.00;;
5811;SDS011;2932;52.400;9.558;2023-04-07T06:51:23;14.90;;;9.73;;
5811;SDS011;2932;52.400;9.558;2023-04-07T06:53:50;14.33;;;9.87;;
5811;SDS011;2932;52.400;9.558;2023-04-07T06:56:15;13.43;;;9.33;;
5811;SDS011;2932;52.400;9.558;2023-04-07T06:58:40;12.90;;;8.97;;
5811;SDS011;2932;52.400;9.558;2023-04-07T07:01:06;10.73;;;8.47;;
5811;SDS011;2932;52.400;9.558;2023-04-07T07:03:31;11.97;;;8.90;;
5811;SDS011;2932;52.400;9.558;2023-04-07T07:05:57;11.27;;;9.20;;
5811;SDS011;2932;52.400;9.558;2023-04-07T07:08:23;13.40;;;8.87;;
5811;SDS011;2932;52.400;9.558;2023-04-07T07:10:49;12.97;;;8.50;;
5811;SDS011;2932;52.400;9.558;2023-04-07T07:13:15;14.30;;;8.80;;
5811;SDS011;2932;52.400;9.558;2023-04-07T07:15:40;11.40;;;8.90;;
5811;SDS011;2932;52.400;9.558;2023-04-07T07:18:06;11.43;;;8.73;;
5811;SDS011;2932;52.400;9.558;2023-04-07T07:20:31;11.10;;;8.93;;
5811;SDS011;2932;52.400;9.558;2023-04-07T07:22:56;12.83;;;8.50;;
5811;SDS011;2932;52.400;9.558;2023-04-07T07:25:22;14.80;;;9.23;;
5811;SDS011;2932;52.400;9.558;2023-04-07T07:27:50;13.60;;;8.57;;
5811;SDS011;2932;52.400;9.558;2023-04-07T07:30:17;11.37;;;8.83;;
5811;SDS011;2932;52.400;9.558;2023-04-07T07:32:46;10.83;;;8.57;;
5811;SDS011;2932;52.400;9.558;2023-04-07T07:35:11;12.73;;;8.90;;
5811;SDS011;2932;52.400;9.558;2023-04-07T07:37:37;13.67;;;8.00;;
5811;SDS011;2932;52.400;9.558;2023-04-07T07:40:02;12.13;;;8.63;;
5811;SDS011;2932;52.400;9.558;2023-04-07T07:42:28;13.60;;;9.20;;
5811;SDS011;2932;52.400;9.558;2023-04-07T07:44:55;12.63;;;8.93;;
5811;SDS011;2932;52.400;9.558;2023-04-07T07:47:20;18.80;;;10.17;;
5811;SDS011;2932;52.400;9.558;2023-04-07T07:49:46;10.30;;;8.43;;
5811;SDS011;2932;52.400;9.558;2023-04-07T07:52:11;13.10;;;9.57;;
5811;SDS011;2932;52.400;9.558;2023-04-07T07:54:36;14.40;;;8.97;;
5811;SDS011;2932;52.400;9.558;2023-04-07T07:57:02;12.30;;;9.20;;
5811;SDS011;2932;52.400;9.558;2023-04-07T07:59:28;12.87;;;8.03;;
5811;SDS011;2932;52.400;9.558;2023-04-07T08:01:54;13.57;;;8.87;;
5811;SDS011;2932;52.400;9.558;2023-04-07T08:04:19;15.97;;;10.20;;
5811;SDS011;2932;52.400;9.558;2023-04-07T08:06:47;11.77;;;8.83;;
5811;SDS011;2932;52.400;9.558;2023-04-07T08:09:12;9.37;;;8.00;;
5811;SDS011;2932;52.400;9.558;2023-04-07T08:11:38;12.17;;;8.30;;
5811;SDS011;2932;52.400;9.558;2023-04-07T08:14:04;14.47;;;8.53;;
5811;SDS011;2932;52.400;9.558;2023-04-07T08:16:29;11.90;;;8.23;;
5811;SDS011;2932;52.400;9.558;2023-04-07T08:18:55;10.43;;;7.73;;
5811;SDS011;2932;52.400;9.558;2023-04-07T08:21:20;11.63;;;7.83;;
5811;SDS011;2932;52.400;9.558;2023-04-07T08:23:46;14.30;;;8.40;;
5811;SDS011;2932;52.400;9.558;2023-04-07T08:26:11;11.03;;;7.30;;
5811;SDS011;2932;52.400;9.558;2023-04-07T08:28:36;10.40;;;7.50;;
5811;SDS011;2932;52.400;9.558;2023-04-07T08:31:03;10.77;;;7.93;;
5811;SDS011;2932;52.400;9.558;2023-04-07T08:33:28;12.50;;;8.93;;
5811;SDS011;2932;52.400;9.558;2023-04-07T08:35:54;9.40;;;7.47;;
5811;SDS011;2932;52.400;9.558;2023-04-07T08:38:19;10.13;;;7.90;;
5811;SDS011;2932;52.400;9.558;2023-04-07T08:40:44;9.63;;;7.33;;
5811;SDS011;2932;52.400;9.558;2023-04-07T08:43:11;17.57;;;8.83;;
5811;SDS011;2932;52.400;9.558;2023-04-07T08:45:38;9.97;;;7.50;;
5811;SDS011;2932;52.400;9.558;2023-04-07T08:48:15;11.17;;;8.23;;
5811;SDS011;2932;52.400;9.558;2023-04-07T08:50:43;7.50;;;6.70;;
5811;SDS011;2932;52.400;9.558;2023-04-07T08:53:10;10.03;;;6.80;;
5811;SDS011;2932;52.400;9.558;2023-04-07T08:55:39;8.03;;;6.40;;
5811;SDS011;2932;52.400;9.558;2023-04-07T08:58:05;8.83;;;6.87;;
5811;SDS011;2932;52.400;9.558;2023-04-07T09:00:36;9.90;;;6.47;;
5811;SDS011;2932;52.400;9.558;2023-04-07T09:03:03;8.10;;;6.60;;
5811;SDS011;2932;52.400;9.558;2023-04-07T09:05:28;8.13;;;6.00;;
5811;SDS011;2932;52.400;9.558;2023-04-07T09:07:54;10.17;;;6.23;;
5811;SDS011;2932;52.400;9.558;2023-04-07T09:10:20;9.47;;;6.70;;
5811;SDS011;2932;52.400;9.558;2023-04-07T09:12:45;12.13;;;6.53;;
5811;SDS011;2932;52.400;9.558;2023-04-07T09:15:11;7.90;;;6.30;;
5811;SDS011;2932;52.400;9.558;2023-04-07T09:17:36;9.37;;;6.90;;
5811;SDS011;2932;52.400;9.558;2023-04-07T09:20:01;7.77;;;6.73;;
5811;SDS011;2932;52.400;9.558;2023-04-07T09:22:38;12.87;;;8.33;;
5811;SDS011;2932;52.400;9.558;2023-04-07T09:25:12;12.73;;;9.03;;
5811;SDS011;2932;52.400;9.558;2023-04-07T09:27:39;7.67;;;6.07;;
5811;SDS011;2932;52.400;9.558;2023-04-07T09:30:12;6.77;;;5.93;;
5811;SDS011;2932;52.400;9.558;2023-04-07T09:32:41;9.80;;;7.00;;
5811;SDS011;2932;52.400;9.558;2023-04-07T09:35:07;7.87;;;6.47;;
5811;SDS011;2932;52.400;9.558;2023-04-07T09:37:33;10.73;;;6.87;;
5811;SDS011;2932;52.400;9.558;2023-04-07T09:39:58;9.77;;;6.10;;
5811;SDS011;2932;52.400;9.558;2023-04-07T09:42:25;7.27;;;6.40;;
5811;SDS011;2932;52.400;9.558;2023-04-07T09:44:54;10.17;;;6.60;;
5811;SDS011;2932;52.400;9.558;2023-04-07T09:47:24;7.53;;;5.93;;
5811;SDS011;2932;52.400;9.558;2023-04-07T09:49:53;7.83;;;5.57;;
5811;SDS011;2932;52.400;9.558;2023-04-07T09:53:05;9.60;;;6.23;;
5811;SDS011;2932;52.400;9.558;2023-04-07T09:55:16;7.93;;;5.83;;
5811;SDS011;2932;52.400;9.558;2023-04-07T09:57:45;7.33;;;5.80;;
5811;SDS011;2932;52.400;9.558;2023-04-07T10:00:11;7.23;;;5.80;;
5811;SDS011;2932;52.400;9.558;2023-04-07T10:02:37;7.33;;;5.80;;
5811;SDS011;2932;52.400;9.558;2023-04-07T10:05:03;6.73;;;5.33;;
5811;SDS011;2932;52.400;9.558;2023-04-07T10:07:28;9.30;;;5.90;;
5811;SDS011;2932;52.400;9.558;2023-04-07T10:09:56;8.05;;;5.50;;
5811;SDS011;2932;52.400;9.558;2023-04-07T10:12:21;8.83;;;5.90;;
5811;SDS011;2932;52.400;9.558;2023-04-07T10:14:48;10.00;;;6.18;;
5811;SDS011;2932;52.400;9.558;2023-04-07T10:17:15;6.90;;;5.37;;
5811;SDS011;2932;52.400;9.558;2023-04-07T10:19:44;8.47;;;5.93;;
5811;SDS011;2932;52.400;9.558;2023-04-07T10:22:10;9.73;;;5.93;;
5811;SDS011;2932;52.400;9.558;2023-04-07T10:27:06;9.13;;;6.07;;
5811;SDS011;2932;52.400;9.558;2023-04-07T10:29:36;8.60;;;6.28;;
5811;SDS011;2932;52.400;9.558;2023-04-07T10:32:05;7.18;;;5.88;;
5811;SDS011;2932;52.400;9.558;2023-04-07T10:37:16;9.02;;;5.97;;
5811;SDS011;2932;52.400;9.558;2023-04-07T10:39:45;10.10;;;6.18;;
5811;SDS011;2932;52.400;9.558;2023-04-07T10:42:43;10.85;;;6.22;;
5811;SDS011;2932;52.400;9.558;2023-04-07T10:45:06;9.57;;;6.20;;
5811;SDS011;2932;52.400;9.558;2023-04-07T10:47:33;10.27;;;7.03;;
5811;SDS011;2932;52.400;9.558;2023-04-07T10:50:19;10.07;;;6.23;;
5811;SDS011;2932;52.400;9.558;2023-04-07T10:52:46;8.65;;;6.30;;
5811;SDS011;2932;52.400;9.558;2023-04-07T10:55:29;9.10;;;5.93;;
5811;SDS011;2932;52.400;9.558;2023-04-07T10:58:39;12.20;;;7.00;;
5811;SDS011;2932;52.400;9.558;2023-04-07T11:01:34;9.30;;;6.07;;
5811;SDS011;2932;52.400;9.558;2023-04-07T11:03:35;8.85;;;6.57;;
5811;SDS011;2932;52.400;9.558;2023-04-07T11:06:09;8.98;;;5.85;;
5811;SDS011;2932;52.400;9.558;2023-04-07T11:08:42;11.25;;;6.20;;
5811;SDS011;2932;52.400;9.558;2023-04-07T11:11:13;13.73;;;9.32;;
5811;SDS011;2932;52.400;9.558;2023-04-07T11:16:06;8.82;;;6.57;;
5811;SDS011;2932;52.400;9.558;2023-04-07T11:18:32;10.93;;;7.05;;
5811;SDS011;2932;52.400;9.558;2023-04-07T11:20:59;8.18;;;6.45;;
5811;SDS011;2932;52.400;9.558;2023-04-07T11:23:24;9.27;;;6.45;;
5811;SDS011;2932;52.400;9.558;2023-04-07T11:26:00;9.88;;;6.97;;
5811;SDS011;2932;52.400;9.558;2023-04-07T11:28:27;10.23;;;7.13;;
5811;SDS011;2932;52.400;9.558;2023-04-07T11:30:53;8.40;;;6.50;;
5811;SDS011;2932;52.400;9.558;2023-04-07T11:33:24;8.48;;;6.72;;
5811;SDS011;2932;52.400;9.558;2023-04-07T11:38:23;7.85;;;6.38;;
5811;SDS011;2932;52.400;9.558;2023-04-07T11:40:51;9.20;;;7.38;;
5811;SDS011;2932;52.400;9.558;2023-04-07T11:43:21;9.23;;;6.30;;
5811;SDS011;2932;52.400;9.558;2023-04-07T11:48:29;8.68;;;6.43;;
5811;SDS011;2932;52.400;9.558;2023-04-07T11:50:55;9.43;;;6.38;;
5811;SDS011;2932;52.400;9.558;2023-04-07T11:53:28;11.00;;;6.90;;
5811;SDS011;2932;52.400;9.558;2023-04-07T11:56:14;9.40;;;6.72;;
5811;SDS011;2932;52.400;9.558;2023-04-07T11:58:50;9.73;;;6.40;;
5811;SDS011;2932;52.400;9.558;2023-04-07T12:01:18;9.35;;;6.57;;
5811;SDS011;2932;52.400;9.558;2023-04-07T12:06:40;9.50;;;6.82;;
5811;SDS011;2932;52.400;9.558;2023-04-07T12:09:07;8.60;;;6.88;;
5811;SDS011;2932;52.400;9.558;2023-04-07T12:11:33;8.43;;;7.13;;
5811;SDS011;2932;52.400;9.558;2023-04-07T12:14:00;8.98;;;6.95;;
5811;SDS011;2932;52.400;9.558;2023-04-07T12:16:28;10.10;;;6.50;;
5811;SDS011;2932;52.400;9.558;2023-04-07T12:18:54;9.18;;;6.88;;
5811;SDS011;2932;52.400;9.558;2023-04-07T12:21:19;8.40;;;6.63;;
5811;SDS011;2932;52.400;9.558;2023-04-07T12:23:45;10.70;;;6.25;;
5811;SDS011;2932;52.400;9.558;2023-04-07T12:26:11;9.75;;;7.47;;
5811;SDS011;2932;52.400;9.558;2023-04-07T12:28:37;9.25;;;7.03;;
5811;SDS011;2932;52.400;9.558;2023-04-07T12:31:02;8.70;;;6.57;;
5811;SDS011;2932;52.400;9.558;2023-04-07T12:33:29;8.57;;;6.45;;
5811;SDS011;2932;52.400;9.558;2023-04-07T12:35:55;10.43;;;6.95;;
5811;SDS011;2932;52.400;9.558;2023-04-07T12:38:22;9.98;;;6.85;;
5811;SDS011;2932;52.400;9.558;2023-04-07T12:40:47;9.27;;;6.95;;
5811;SDS011;2932;52.400;9.558;2023-04-07T12:43:12;9.90;;;6.88;;
5811;SDS011;2932;52.400;9.558;2023-04-07T12:45:38;8.98;;;7.13;;
5811;SDS011;2932;52.400;9.558;2023-04-07T12:48:03;10.57;;;6.40;;
5811;SDS011;2932;52.400;9.558;2023-04-07T12:50:29;8.57;;;6.75;;
5811;SDS011;2932;52.400;9.558;2023-04-07T12:52:54;8.68;;;6.70;;
5811;SDS011;2932;52.400;9.558;2023-04-07T12:55:20;8.43;;;6.55;;
5811;SDS011;2932;52.400;9.558;2023-04-07T12:57:45;8.82;;;6.32;;
5811;SDS011;2932;52.400;9.558;2023-04-07T13:00:11;8.98;;;6.40;;
5811;SDS011;2932;52.400;9.558;2023-04-07T13:02:37;8.45;;;6.65;;
5811;SDS011;2932;52.400;9.558;2023-04-07T13:05:03;8.00;;;6.15;;
5811;SDS011;2932;52.400;9.558;2023-04-07T13:07:29;8.68;;;6.40;;
5811;SDS011;2932;52.400;9.558;2023-04-07T13:09:55;7.63;;;6.03;;
5811;SDS011;2932;52.400;9.558;2023-04-07T13:12:21;7.15;;;6.40;;
5811;SDS011;2932;52.400;9.558;2023-04-07T13:14:46;10.18;;;6.47;;
5811;SDS011;2932;52.400;9.558;2023-04-07T13:17:12;10.07;;;6.72;;
5811;SDS011;2932;52.400;9.558;2023-04-07T13:19:37;8.55;;;5.78;;
5811;SDS011;2932;52.400;9.558;2023-04-07T13:22:04;9.75;;;5.75;;
5811;SDS011;2932;52.400;9.558;2023-04-07T13:24:29;8.10;;;6.13;;
5811;SDS011;2932;52.400;9.558;2023-04-07T13:26:55;7.80;;;5.85;;
5811;SDS011;2932;52.400;9.558;2023-04-07T13:29:21;8.35;;;6.00;;
5811;SDS011;2932;52.400;9.558;2023-04-07T13:31:47;7.80;;;6.18;;
5811;SDS011;2932;52.400;9.558;2023-04-07T13:34:13;8.57;;;5.95;;
5811;SDS011;2932;52.400;9.558;2023-04-07T13:36:39;7.28;;;5.25;;
5811;SDS011;2932;52.400;9.558;2023-04-07T13:39:05;6.47;;;4.90;;
5811;SDS011;2932;52.400;9.558;2023-04-07T13:41:31;6.57;;;5.75;;
5811;SDS011;2932;52.400;9.558;2023-04-07T13:43:57;8.30;;;5.50;;
5811;SDS011;2932;52.400;9.558;2023-04-07T13:46:25;9.38;;;5.97;;
5811;SDS011;2932;52.400;9.558;2023-04-07T13:48:51;7.50;;;5.22;;
5811;SDS011;2932;52.400;9.558;2023-04-07T13:51:16;7.50;;;5.65;;
5811;SDS011;2932;52.400;9.558;2023-04-07T13:53:42;11.18;;;5.15;;
5811;SDS011;2932;52.400;9.558;2023-04-07T13:56:07;6.22;;;5.38;;
5811;SDS011;2932;52.400;9.558;2023-04-07T13:58:34;7.45;;;4.75;;
5811;SDS011;2932;52.400;9.558;2023-04-07T14:01:00;6.95;;;5.05;;
5811;SDS011;2932;52.400;9.558;2023-04-07T14:03:25;5.82;;;4.70;;
5811;SDS011;2932;52.400;9.558;2023-04-07T14:05:52;6.40;;;5.15;;
5811;SDS011;2932;52.400;9.558;2023-04-07T14:08:17;7.05;;;4.82;;
5811;SDS011;2932;52.400;9.558;2023-04-07T14:10:43;5.80;;;4.70;;
5811;SDS011;2932;52.400;9.558;2023-04-07T14:13:08;7.40;;;4.88;;
5811;SDS011;2932;52.400;9.558;2023-04-07T14:15:33;7.13;;;4.97;;
5811;SDS011;2932;52.400;9.558;2023-04-07T14:17:59;5.95;;;4.57;;
5811;SDS011;2932;52.400;9.558;2023-04-07T14:20:25;6.40;;;4.13;;
5811;SDS011;2932;52.400;9.558;2023-04-07T14:22:50;5.43;;;4.68;;
5811;SDS011;2932;52.400;9.558;2023-04-07T14:25:16;7.93;;;4.55;;
5811;SDS011;2932;52.400;9.558;2023-04-07T14:27:41;5.97;;;4.15;;
5811;SDS011;2932;52.400;9.558;2023-04-07T14:30:07;6.57;;;3.97;;
5811;SDS011;2932;52.400;9.558;2023-04-07T14:32:33;5.35;;;3.88;;
5811;SDS011;2932;52.400;9.558;2023-04-07T14:34:58;4.70;;;3.97;;
5811;SDS011;2932;52.400;9.558;2023-04-07T14:37:24;7.85;;;4.30;;
5811;SDS011;2932;52.400;9.558;2023-04-07T14:39:50;6.85;;;3.90;;
5811;SDS011;2932;52.400;9.558;2023-04-07T14:42:17;5.00;;;3.92;;
5811;SDS011;2932;52.400;9.558;2023-04-07T14:44:43;5.43;;;4.55;;
5811;SDS011;2932;52.400;9.558;2023-04-07T14:47:08;7.75;;;6.43;;
5811;SDS011;2932;52.400;9.558;2023-04-07T14:49:33;6.60;;;4.60;;
5811;SDS011;2932;52.400;9.558;2023-04-07T14:51:59;7.80;;;5.22;;
5811;SDS011;2932;52.400;9.558;2023-04-07T14:54:24;6.35;;;4.35;;
5811;SDS011;2932;52.400;9.558;2023-04-07T14:56:49;4.95;;;4.18;;
5811;SDS011;2932;52.400;9.558;2023-04-07T14:59:15;5.65;;;4.32;;
5811;SDS011;2932;52.400;9.558;2023-04-07T15:01:40;5.75;;;4.05;;
5811;SDS011;2932;52.400;9.558;2023-04-07T15:04:06;4.65;;;3.83;;
5811;SDS011;2932;52.400;9.558;2023-04-07T15:06:31;5.25;;;4.32;;
5811;SDS011;2932;52.400;9.558;2023-04-07T15:08:56;7.00;;;4.47;;
5811;SDS011;2932;52.400;9.558;2023-04-07T15:11:22;5.57;;;4.10;;
5811;SDS011;2932;52.400;9.558;2023-04-07T15:13:47;5.32;;;4.25;;
5811;SDS011;2932;52.400;9.558;2023-04-07T15:16:13;4.97;;;4.07;;
5811;SDS011;2932;52.400;9.558;2023-04-07T15:18:40;6.18;;;3.90;;
5811;SDS011;2932;52.400;9.558;2023-04-07T15:21:10;5.38;;;4.20;;
5811;SDS011;2932;52.400;9.558;2023-04-07T15:23:37;5.85;;;3.90;;